createdAt,value
2019-05-22T00:00:54.834Z,0.00
2019-05-22T00:01:54.821Z,0.00
2019-05-22T00:02:54.829Z,0.00
2019-05-22T00:03:54.793Z,0.00
2019-05-22T00:04:54.803Z,0.00
2019-05-22T00:05:54.788Z,0.00
2019-05-22T00:06:54.762Z,0.00
2019-05-22T00:07:54.749Z,0.00
2019-05-22T00:08:54.742Z,0.00
2019-05-22T00:09:54.731Z,0.00
2019-05-22T00:10:54.733Z,0.00
2019-05-22T00:11:54.710Z,0.00
2019-05-22T00:12:54.695Z,0.00
2019-05-22T00:13:54.682Z,0.00
2019-05-22T00:14:54.734Z,0.00
2019-05-22T00:15:54.710Z,0.00
2019-05-22T00:16:54.675Z,0.00
2019-05-22T00:17:54.641Z,0.00
2019-05-22T00:18:54.623Z,0.00
2019-05-22T00:19:54.629Z,0.00
2019-05-22T00:20:54.631Z,0.00
2019-05-22T00:21:54.605Z,0.00
2019-05-22T00:22:54.585Z,0.00
2019-05-22T00:23:54.566Z,0.00
2019-05-22T00:24:54.569Z,0.00
2019-05-22T00:25:55.111Z,0.00
2019-05-22T00:26:54.570Z,0.00
2019-05-22T00:27:54.538Z,0.00
2019-05-22T00:28:54.541Z,0.00
2019-05-22T00:29:54.505Z,0.00
2019-05-22T00:30:54.499Z,0.00
2019-05-22T00:31:54.482Z,0.00
2019-05-22T00:32:54.510Z,0.00
2019-05-22T00:33:54.469Z,0.00
2019-05-22T00:34:54.440Z,0.00
2019-05-22T00:35:54.443Z,0.00
2019-05-22T00:36:54.427Z,0.00
2019-05-22T00:37:54.419Z,0.00
2019-05-22T00:38:54.693Z,0.00
2019-05-22T00:39:54.389Z,0.00
2019-05-22T00:40:54.387Z,0.00
2019-05-22T00:41:54.377Z,0.00
2019-05-22T00:43:03.489Z,0.00
2019-05-22T00:43:55.397Z,0.00
2019-05-22T00:44:54.338Z,0.00
2019-05-22T00:45:54.328Z,0.00
2019-05-22T00:46:54.312Z,0.00
2019-05-22T00:47:54.306Z,0.00
2019-05-22T00:48:54.292Z,0.00
2019-05-22T00:49:54.310Z,0.00
2019-05-22T00:50:54.277Z,0.00
2019-05-22T00:51:54.262Z,0.00
2019-05-22T00:52:54.243Z,0.00
2019-05-22T00:53:54.314Z,0.00
2019-05-22T00:54:54.237Z,0.00
2019-05-22T00:55:54.224Z,0.00
2019-05-22T00:56:54.211Z,0.00
2019-05-22T00:57:54.194Z,0.00
2019-05-22T00:58:54.192Z,0.00
2019-05-22T00:59:54.185Z,0.00
2019-05-22T01:00:54.174Z,0.00
2019-05-22T01:01:54.163Z,0.00
2019-05-22T01:02:54.137Z,0.00
2019-05-22T01:03:54.127Z,0.00
2019-05-22T01:04:54.125Z,0.00
2019-05-22T01:05:54.113Z,0.00
2019-05-22T01:06:54.100Z,0.00
2019-05-22T01:07:54.102Z,0.00
2019-05-22T01:08:54.071Z,0.00
2019-05-22T01:09:54.102Z,0.00
2019-05-22T01:10:54.083Z,0.00
2019-05-22T01:11:54.038Z,0.00
2019-05-22T01:12:54.035Z,0.00
2019-05-22T01:13:54.037Z,0.00
2019-05-22T01:14:54.029Z,0.00
2019-05-22T01:15:53.992Z,0.00
2019-05-22T01:16:54.164Z,0.00
2019-05-22T01:17:53.977Z,0.00
2019-05-22T01:18:53.976Z,0.00
2019-05-22T01:19:53.964Z,0.00
2019-05-22T01:20:53.947Z,0.00
2019-05-22T01:21:53.931Z,0.00
2019-05-22T01:22:53.934Z,0.00
2019-05-22T01:23:53.911Z,0.00
2019-05-22T01:24:53.903Z,0.00
2019-05-22T01:25:53.901Z,0.00
2019-05-22T01:26:53.930Z,0.00
2019-05-22T01:27:53.875Z,0.00
2019-05-22T01:28:53.849Z,0.00
2019-05-22T01:29:53.904Z,0.00
2019-05-22T01:30:53.836Z,0.00
2019-05-22T01:31:53.833Z,0.00
2019-05-22T01:32:53.807Z,0.00
2019-05-22T01:33:53.813Z,0.00
2019-05-22T01:34:53.822Z,0.00
2019-05-22T01:35:53.784Z,0.00
2019-05-22T01:36:53.785Z,0.00
2019-05-22T01:37:53.765Z,0.00
2019-05-22T01:38:53.752Z,0.00
2019-05-22T01:39:53.731Z,0.00
2019-05-22T01:40:53.717Z,0.00
2019-05-22T01:41:53.715Z,0.00
2019-05-22T01:42:53.698Z,0.00
2019-05-22T01:43:53.712Z,0.00
2019-05-22T01:45:05.115Z,0.00
2019-05-22T01:45:54.669Z,0.00
2019-05-22T01:46:53.664Z,0.00
2019-05-22T01:47:53.653Z,0.00
2019-05-22T01:48:53.626Z,0.00
2019-05-22T01:49:53.780Z,0.00
2019-05-22T01:50:53.606Z,0.00
2019-05-22T01:51:53.622Z,0.00
2019-05-22T01:52:53.595Z,0.00
2019-05-22T01:53:53.620Z,0.00
2019-05-22T01:54:53.595Z,0.00
2019-05-22T01:55:53.582Z,0.00
2019-05-22T01:56:53.534Z,0.00
2019-05-22T01:57:53.525Z,0.00
2019-05-22T01:58:53.525Z,0.00
2019-05-22T01:59:53.540Z,0.00
2019-05-22T02:00:53.502Z,0.00
2019-05-22T02:01:53.536Z,0.00
2019-05-22T02:02:53.482Z,0.00
2019-05-22T02:03:53.465Z,0.00
2019-05-22T02:04:53.458Z,0.00
2019-05-22T02:05:53.464Z,0.00
2019-05-22T02:06:53.446Z,0.00
2019-05-22T02:07:53.435Z,0.00
2019-05-22T02:08:53.421Z,0.00
2019-05-22T02:09:53.396Z,0.00
2019-05-22T02:10:53.404Z,0.00
2019-05-22T02:11:53.424Z,0.00
2019-05-22T02:12:53.360Z,0.00
2019-05-22T02:13:53.384Z,0.00
2019-05-22T02:14:53.332Z,0.00
2019-05-22T02:15:53.335Z,0.00
2019-05-22T02:16:56.818Z,0.00
2019-05-22T02:17:56.474Z,0.00
2019-05-22T02:18:53.294Z,0.00
2019-05-22T02:19:53.757Z,0.00
2019-05-22T02:20:53.281Z,0.00
2019-05-22T02:21:53.265Z,0.00
2019-05-22T02:22:53.265Z,0.00
2019-05-22T02:23:53.235Z,0.00
2019-05-22T02:24:53.241Z,0.00
2019-05-22T02:25:53.219Z,0.00
2019-05-22T02:26:53.208Z,0.00
2019-05-22T02:27:53.212Z,0.00
2019-05-22T02:28:53.188Z,0.00
2019-05-22T02:29:53.213Z,4.00
2019-05-22T02:30:53.165Z,4.00
2019-05-22T02:31:55.512Z,4.00
2019-05-22T02:32:53.149Z,4.00
2019-05-22T02:33:53.140Z,0.00
2019-05-22T02:34:53.109Z,4.00
2019-05-22T02:35:53.150Z,4.00
2019-05-22T02:36:53.101Z,4.00
2019-05-22T02:37:53.152Z,4.00
2019-05-22T02:38:53.089Z,4.00
2019-05-22T02:39:53.068Z,8.00
2019-05-22T02:40:53.050Z,8.00
2019-05-22T02:41:53.103Z,8.00
2019-05-22T02:42:53.028Z,12.00
2019-05-22T02:43:53.010Z,8.00
2019-05-22T02:44:53.013Z,12.00
2019-05-22T02:45:52.985Z,8.00
2019-05-22T02:46:52.982Z,12.00
2019-05-22T02:47:52.998Z,12.00
2019-05-22T02:48:53.179Z,16.00
2019-05-22T02:49:52.945Z,12.00
2019-05-22T02:50:52.940Z,16.00
2019-05-22T02:51:52.927Z,20.00
2019-05-22T02:52:52.931Z,24.00
2019-05-22T02:53:52.924Z,24.00
2019-05-22T02:54:52.885Z,24.00
2019-05-22T02:55:52.888Z,24.00
2019-05-22T02:56:52.867Z,24.00
2019-05-22T02:57:52.875Z,24.00
2019-05-22T02:58:52.861Z,24.00
2019-05-22T02:59:52.831Z,24.00
2019-05-22T03:00:52.826Z,24.00
2019-05-22T03:01:52.821Z,24.00
2019-05-22T03:02:52.818Z,24.00
2019-05-22T03:03:52.890Z,24.00
2019-05-22T03:04:52.791Z,32.00
2019-05-22T03:05:52.769Z,36.00
2019-05-22T03:06:52.756Z,36.00
2019-05-22T03:07:52.768Z,40.00
2019-05-22T03:08:52.776Z,44.00
2019-05-22T03:09:52.717Z,40.00
2019-05-22T03:10:52.709Z,44.00
2019-05-22T03:11:52.700Z,48.00
2019-05-22T03:12:52.699Z,44.00
2019-05-22T03:13:52.685Z,52.00
2019-05-22T03:14:52.696Z,56.00
2019-05-22T03:15:52.656Z,52.00
2019-05-22T03:16:52.644Z,60.00
2019-05-22T03:17:52.630Z,64.00
2019-05-22T03:19:07.898Z,68.00
2019-05-22T03:19:53.627Z,72.00
2019-05-22T03:20:52.607Z,80.00
2019-05-22T03:21:52.589Z,92.00
2019-05-22T03:22:52.593Z,96.00
2019-05-22T03:23:52.566Z,104.00
2019-05-22T03:24:52.555Z,104.00
2019-05-22T03:25:52.558Z,112.00
2019-05-22T03:26:52.535Z,112.00
2019-05-22T03:27:52.768Z,116.00
2019-05-22T03:28:52.525Z,112.00
2019-05-22T03:29:52.544Z,112.00
2019-05-22T03:30:52.574Z,116.00
2019-05-22T03:31:52.485Z,128.00
2019-05-22T03:32:52.485Z,132.00
2019-05-22T03:33:52.480Z,160.00
2019-05-22T03:34:52.443Z,164.00
2019-05-22T03:35:52.439Z,172.00
2019-05-22T03:36:52.428Z,196.00
2019-05-22T03:37:52.408Z,188.00
2019-05-22T03:38:52.463Z,196.00
2019-05-22T03:39:52.391Z,208.00
2019-05-22T03:40:52.480Z,216.00
2019-05-22T03:41:52.405Z,228.00
2019-05-22T03:42:52.383Z,236.00
2019-05-22T03:43:52.340Z,268.00
2019-05-22T03:44:52.345Z,260.00
2019-05-22T03:45:52.320Z,264.00
2019-05-22T03:46:52.312Z,284.00
2019-05-22T03:47:52.313Z,296.00
2019-05-22T03:48:52.311Z,308.00
2019-05-22T03:49:52.522Z,316.00
2019-05-22T03:50:52.278Z,296.00
2019-05-22T03:51:52.278Z,336.00
2019-05-22T03:52:52.255Z,356.00
2019-05-22T03:53:52.238Z,336.00
2019-05-22T03:54:52.231Z,328.00
2019-05-22T03:55:52.235Z,352.00
2019-05-22T03:56:52.233Z,360.00
2019-05-22T03:57:52.190Z,320.00
2019-05-22T03:58:52.197Z,324.00
2019-05-22T03:59:52.171Z,352.00
2019-05-22T04:00:52.172Z,344.00
2019-05-22T04:01:52.203Z,372.00
2019-05-22T04:02:52.147Z,384.00
2019-05-22T04:03:52.131Z,372.00
2019-05-22T04:04:52.147Z,376.00
2019-05-22T04:05:52.091Z,400.00
2019-05-22T04:06:52.107Z,372.00
2019-05-22T04:07:52.078Z,336.00
2019-05-22T04:08:52.063Z,308.00
2019-05-22T04:09:52.072Z,320.00
2019-05-22T04:10:52.060Z,432.00
2019-05-22T04:11:52.070Z,372.00
2019-05-22T04:12:52.023Z,452.00
2019-05-22T04:13:52.023Z,424.00
2019-05-22T04:14:51.994Z,496.00
2019-05-22T04:15:52.008Z,536.00
2019-05-22T04:16:52.150Z,496.00
2019-05-22T04:17:52.028Z,488.00
2019-05-22T04:18:51.953Z,564.00
2019-05-22T04:19:52.111Z,532.00
2019-05-22T04:20:51.934Z,560.00
2019-05-22T04:21:51.936Z,600.00
2019-05-22T04:22:51.953Z,540.00
2019-05-22T04:23:51.906Z,504.00
2019-05-22T04:24:51.908Z,544.00
2019-05-22T04:25:53.490Z,480.00
2019-05-22T04:26:51.878Z,516.00
2019-05-22T04:27:51.859Z,532.00
2019-05-22T04:28:51.851Z,512.00
2019-05-22T04:29:51.841Z,488.00
2019-05-22T04:30:51.822Z,488.00
2019-05-22T04:31:51.835Z,508.00
2019-05-22T04:32:51.805Z,548.00
2019-05-22T04:33:51.811Z,492.00
2019-05-22T04:34:51.782Z,592.00
2019-05-22T04:35:51.785Z,552.00
2019-05-22T04:36:51.759Z,584.00
2019-05-22T04:37:51.738Z,600.00
2019-05-22T04:38:51.750Z,496.00
2019-05-22T04:39:51.759Z,476.00
2019-05-22T04:40:51.747Z,584.00
2019-05-22T04:41:51.716Z,568.00
2019-05-22T04:42:51.784Z,632.00
2019-05-22T04:43:51.783Z,648.00
2019-05-22T04:44:51.741Z,696.00
2019-05-22T04:45:51.738Z,648.00
2019-05-22T04:46:51.803Z,672.00
2019-05-22T04:47:51.657Z,648.00
2019-05-22T04:48:51.617Z,720.00
2019-05-22T04:50:06.228Z,716.00
2019-05-22T04:50:52.953Z,772.00
2019-05-22T04:51:51.626Z,872.00
2019-05-22T04:52:51.682Z,928.00
2019-05-22T04:53:51.609Z,964.00
2019-05-22T04:54:52.555Z,888.00
2019-05-22T04:55:51.798Z,832.00
2019-05-22T04:56:51.576Z,936.00
2019-05-22T04:57:51.559Z,936.00
2019-05-22T04:58:51.515Z,1028.00
2019-05-22T04:59:51.545Z,996.00
2019-05-22T05:00:51.486Z,992.00
2019-05-22T05:01:51.498Z,1160.00
2019-05-22T05:02:51.473Z,1216.00
2019-05-22T05:03:51.447Z,1132.00
2019-05-22T05:04:51.452Z,1308.00
2019-05-22T05:05:51.428Z,1308.00
2019-05-22T05:06:51.432Z,1432.00
2019-05-22T05:07:51.411Z,1380.00
2019-05-22T05:08:51.387Z,1236.00
2019-05-22T05:09:51.379Z,1408.00
2019-05-22T05:10:51.368Z,1356.00
2019-05-22T05:11:51.371Z,1408.00
2019-05-22T05:12:51.365Z,1384.00
2019-05-22T05:13:51.339Z,1272.00
2019-05-22T05:14:51.356Z,1180.00
2019-05-22T05:15:51.330Z,1136.00
2019-05-22T05:16:51.626Z,1132.00
2019-05-22T05:17:51.304Z,1092.00
2019-05-22T05:18:51.320Z,1436.00
2019-05-22T05:19:51.271Z,1744.00
2019-05-22T05:20:51.262Z,1828.00
2019-05-22T05:21:51.313Z,2184.00
2019-05-22T05:22:51.542Z,2392.00
2019-05-22T05:23:51.225Z,2120.00
2019-05-22T05:24:51.219Z,2296.00
2019-05-22T05:25:51.232Z,2328.00
2019-05-22T05:26:51.193Z,2136.00
2019-05-22T05:27:51.279Z,2032.00
2019-05-22T05:28:51.201Z,2096.00
2019-05-22T05:29:51.161Z,2180.00
2019-05-22T05:30:51.156Z,1984.00
2019-05-22T05:31:51.148Z,2160.00
2019-05-22T05:32:51.160Z,2052.00
2019-05-22T05:33:51.130Z,2588.00
2019-05-22T05:34:51.102Z,2812.00
2019-05-22T05:35:51.103Z,2756.00
2019-05-22T05:36:51.084Z,2644.00
2019-05-22T05:37:51.063Z,2472.00
2019-05-22T05:38:51.072Z,2400.00
2019-05-22T05:39:51.064Z,2140.00
2019-05-22T05:40:51.048Z,2272.00
2019-05-22T05:41:51.028Z,2328.00
2019-05-22T05:42:51.014Z,2040.00
2019-05-22T05:43:51.019Z,2044.00
2019-05-22T05:44:50.996Z,2348.00
2019-05-22T05:45:51.021Z,2252.00
2019-05-22T05:46:50.975Z,2036.00
2019-05-22T05:47:50.958Z,2144.00
2019-05-22T05:48:50.938Z,2004.00
2019-05-22T05:49:50.963Z,2316.00
2019-05-22T05:50:50.918Z,2184.00
2019-05-22T05:51:51.361Z,2100.00
2019-05-22T05:52:50.950Z,2224.00
2019-05-22T05:53:50.925Z,2148.00
2019-05-22T05:54:50.920Z,2340.00
2019-05-22T05:55:50.864Z,2408.00
2019-05-22T05:56:50.882Z,2396.00
2019-05-22T05:57:50.850Z,2732.00
2019-05-22T05:58:50.839Z,2348.00
2019-05-22T05:59:50.827Z,2572.00
2019-05-22T06:00:50.829Z,2424.00
2019-05-22T06:01:50.816Z,2684.00
2019-05-22T06:02:56.621Z,2976.00
2019-05-22T06:03:51.774Z,3008.00
2019-05-22T06:04:50.774Z,2984.00
2019-05-22T06:05:50.759Z,3104.00
2019-05-22T06:06:51.228Z,3112.00
2019-05-22T06:07:50.751Z,2860.00
2019-05-22T06:08:50.779Z,2732.00
2019-05-22T06:09:50.741Z,2724.00
2019-05-22T06:10:50.704Z,2456.00
2019-05-22T06:11:50.728Z,3080.00
2019-05-22T06:12:50.676Z,2628.00
2019-05-22T06:13:50.668Z,2852.00
2019-05-22T06:14:50.677Z,2684.00
2019-05-22T06:15:50.654Z,2592.00
2019-05-22T06:16:50.634Z,2852.00
2019-05-22T06:17:50.746Z,2688.00
2019-05-22T06:18:50.616Z,2720.00
2019-05-22T06:19:50.607Z,2604.00
2019-05-22T06:21:03.440Z,3004.00
2019-05-22T06:21:51.584Z,3172.00
2019-05-22T06:22:50.564Z,3172.00
2019-05-22T06:23:50.675Z,3488.00
2019-05-22T06:24:50.544Z,3440.00
2019-05-22T06:25:50.543Z,3268.00
2019-05-22T06:26:50.544Z,3268.00
2019-05-22T06:27:50.514Z,3256.00
2019-05-22T06:28:50.523Z,4020.00
2019-05-22T06:29:50.483Z,4200.00
2019-05-22T06:30:50.479Z,4012.00
2019-05-22T06:31:50.490Z,3780.00
2019-05-22T06:32:50.462Z,3696.00
2019-05-22T06:33:50.462Z,3936.00
2019-05-22T06:34:50.439Z,4064.00
2019-05-22T06:35:50.430Z,4532.00
2019-05-22T06:36:50.422Z,4644.00
2019-05-22T06:37:50.408Z,4980.00
2019-05-22T06:38:50.597Z,5032.00
2019-05-22T06:39:50.400Z,5428.00
2019-05-22T06:40:50.415Z,4456.00
2019-05-22T06:41:50.358Z,4860.00
2019-05-22T06:42:50.350Z,4232.00
2019-05-22T06:43:50.380Z,3880.00
2019-05-22T06:44:50.323Z,3440.00
2019-05-22T06:45:50.310Z,2896.00
2019-05-22T06:46:50.326Z,2852.00
2019-05-22T06:47:50.307Z,3100.00
2019-05-22T06:48:50.284Z,3560.00
2019-05-22T06:49:50.285Z,3324.00
2019-05-22T06:50:50.252Z,3340.00
2019-05-22T06:51:50.252Z,2932.00
2019-05-22T06:52:50.237Z,3352.00
2019-05-22T06:53:50.235Z,3560.00
2019-05-22T06:54:50.241Z,4104.00
2019-05-22T06:55:50.221Z,5252.00
2019-05-22T06:56:50.206Z,5772.00
2019-05-22T06:57:50.181Z,4272.00
2019-05-22T06:58:50.176Z,3548.00
2019-05-22T07:00:10.748Z,3988.00
2019-05-22T07:00:51.150Z,5288.00
2019-05-22T07:01:50.137Z,4884.00
2019-05-22T07:02:50.129Z,5696.00
2019-05-22T07:03:50.111Z,4308.00
2019-05-22T07:04:50.153Z,3464.00
2019-05-22T07:05:50.124Z,3268.00
2019-05-22T07:06:50.083Z,2712.00
2019-05-22T07:07:50.077Z,3036.00
2019-05-22T07:08:50.053Z,2896.00
2019-05-22T07:09:50.047Z,3216.00
2019-05-22T07:10:50.043Z,3280.00
2019-05-22T07:11:50.085Z,3484.00
2019-05-22T07:12:51.012Z,3392.00
2019-05-22T07:13:49.997Z,3672.00
2019-05-22T07:14:49.997Z,4216.00
2019-05-22T07:15:49.986Z,4780.00
2019-05-22T07:16:49.972Z,4332.00
2019-05-22T07:17:50.007Z,4640.00
2019-05-22T07:18:49.950Z,4828.00
2019-05-22T07:19:49.931Z,4260.00
2019-05-22T07:20:49.933Z,4552.00
2019-05-22T07:21:49.923Z,4304.00
2019-05-22T07:22:49.912Z,4312.00
2019-05-22T07:23:49.908Z,4376.00
2019-05-22T07:24:49.882Z,4056.00
2019-05-22T07:25:49.868Z,4200.00
2019-05-22T07:27:10.858Z,4184.00
2019-05-22T07:27:50.241Z,3976.00
2019-05-22T07:28:49.834Z,3912.00
2019-05-22T07:29:49.831Z,4068.00
2019-05-22T07:30:49.827Z,3968.00
2019-05-22T07:31:49.823Z,4116.00
2019-05-22T07:32:49.803Z,3816.00
2019-05-22T07:33:49.806Z,4344.00
2019-05-22T07:34:49.851Z,4348.00
2019-05-22T07:36:08.659Z,4664.00
2019-05-22T07:36:50.740Z,5056.00
2019-05-22T07:37:49.742Z,4856.00
2019-05-22T07:38:49.729Z,5132.00
2019-05-22T07:39:49.717Z,5028.00
2019-05-22T07:40:50.949Z,5320.00
2019-05-22T07:41:49.700Z,5324.00
2019-05-22T07:42:49.809Z,5532.00
2019-05-22T07:43:49.709Z,6140.00
2019-05-22T07:44:49.689Z,6316.00
2019-05-22T07:45:49.666Z,5884.00
2019-05-22T07:46:49.635Z,5832.00
2019-05-22T07:47:49.630Z,5380.00
2019-05-22T07:48:49.621Z,5584.00
2019-05-22T07:49:49.599Z,5868.00
2019-05-22T07:50:49.761Z,6264.00
2019-05-22T07:51:57.485Z,5396.00
2019-05-22T07:52:50.593Z,5528.00
2019-05-22T07:53:49.567Z,4884.00
2019-05-22T07:54:49.557Z,5120.00
2019-05-22T07:55:49.564Z,5344.00
2019-05-22T07:56:49.531Z,4800.00
2019-05-22T07:57:49.508Z,4828.00
2019-05-22T07:58:49.513Z,4844.00
2019-05-22T07:59:49.491Z,4968.00
2019-05-22T08:00:49.488Z,4916.00
2019-05-22T08:01:49.477Z,4996.00
2019-05-22T08:02:49.489Z,4940.00
2019-05-22T08:03:49.461Z,5000.00
2019-05-22T08:04:49.447Z,5020.00
2019-05-22T08:05:49.449Z,5544.00
2019-05-22T08:06:49.457Z,5212.00
2019-05-22T08:07:49.422Z,5872.00
2019-05-22T08:08:49.395Z,7140.00
2019-05-22T08:09:49.408Z,7108.00
2019-05-22T08:10:49.377Z,6844.00
2019-05-22T08:11:49.354Z,7056.00
2019-05-22T08:12:49.368Z,6260.00
2019-05-22T08:13:49.334Z,6764.00
2019-05-22T08:14:49.356Z,6564.00
2019-05-22T08:15:49.327Z,6120.00
2019-05-22T08:16:49.293Z,6524.00
2019-05-22T08:17:49.325Z,6360.00
2019-05-22T08:18:49.297Z,6400.00
2019-05-22T08:19:49.277Z,6284.00
2019-05-22T08:20:49.288Z,6188.00
2019-05-22T08:21:49.264Z,6300.00
2019-05-22T08:22:49.229Z,7788.00
2019-05-22T08:23:49.236Z,8168.00
2019-05-22T08:24:49.209Z,7520.00
2019-05-22T08:25:49.214Z,7804.00
2019-05-22T08:26:54.549Z,7432.00
2019-05-22T08:27:50.212Z,7752.00
2019-05-22T08:28:49.164Z,8252.00
2019-05-22T08:29:49.262Z,7268.00
2019-05-22T08:30:49.173Z,7352.00
2019-05-22T08:31:49.147Z,7716.00
2019-05-22T08:32:49.162Z,7600.00
2019-05-22T08:33:49.137Z,7656.00
2019-05-22T08:34:49.107Z,8604.00
2019-05-22T08:35:49.100Z,8804.00
2019-05-22T08:36:49.193Z,8964.00
2019-05-22T08:37:49.067Z,8964.00
2019-05-22T08:38:49.090Z,8260.00
2019-05-22T08:39:49.033Z,7796.00
2019-05-22T08:40:49.042Z,8796.00
2019-05-22T08:41:49.048Z,8896.00
2019-05-22T08:42:49.334Z,9180.00
2019-05-22T08:44:13.739Z,8448.00
2019-05-22T08:44:49.977Z,8584.00
2019-05-22T08:45:48.967Z,7556.00
2019-05-22T08:46:48.967Z,8496.00
2019-05-22T08:47:48.948Z,8360.00
2019-05-22T08:48:49.528Z,7400.00
2019-05-22T08:49:48.937Z,6640.00
2019-05-22T08:50:48.919Z,7120.00
2019-05-22T08:51:48.910Z,7660.00
2019-05-22T08:52:48.896Z,7108.00
2019-05-22T08:53:49.053Z,6380.00
2019-05-22T08:54:48.892Z,5288.00
2019-05-22T08:55:48.867Z,5148.00
2019-05-22T08:56:48.846Z,6944.00
2019-05-22T08:57:48.851Z,6352.00
2019-05-22T08:58:48.842Z,5660.00
2019-05-22T08:59:48.848Z,5752.00
2019-05-22T09:00:48.850Z,5856.00
2019-05-22T09:01:48.797Z,6224.00
2019-05-22T09:02:48.793Z,5872.00
2019-05-22T09:03:48.776Z,7300.00
2019-05-22T09:04:48.790Z,7560.00
2019-05-22T09:05:48.776Z,6736.00
2019-05-22T09:06:48.733Z,7144.00
2019-05-22T09:07:48.726Z,6968.00
2019-05-22T09:08:48.717Z,7172.00
2019-05-22T09:09:48.716Z,7176.00
2019-05-22T09:10:48.708Z,7412.00
2019-05-22T09:11:48.728Z,7228.00
2019-05-22T09:12:48.673Z,7448.00
2019-05-22T09:13:48.665Z,7124.00
2019-05-22T09:14:48.647Z,7840.00
2019-05-22T09:15:48.639Z,7096.00
2019-05-22T09:16:48.645Z,7140.00
2019-05-22T09:17:48.688Z,7660.00
2019-05-22T09:18:48.620Z,7624.00
2019-05-22T09:19:48.587Z,7952.00
2019-05-22T09:20:49.793Z,7860.00
2019-05-22T09:21:48.575Z,8588.00
2019-05-22T09:22:48.605Z,8252.00
2019-05-22T09:23:48.619Z,8516.00
2019-05-22T09:24:48.544Z,9224.00
2019-05-22T09:25:48.519Z,8212.00
2019-05-22T09:26:48.519Z,8892.00
2019-05-22T09:27:48.513Z,9220.00
2019-05-22T09:28:48.506Z,8852.00
2019-05-22T09:29:48.484Z,9940.00
2019-05-22T09:30:48.581Z,10692.00
2019-05-22T09:31:48.455Z,10708.00
2019-05-22T09:32:48.465Z,10120.00
2019-05-22T09:33:48.467Z,9712.00
2019-05-22T09:34:48.417Z,9740.00
2019-05-22T09:35:48.418Z,9440.00
2019-05-22T09:36:48.419Z,9220.00
2019-05-22T09:37:48.403Z,9912.00
2019-05-22T09:38:51.871Z,10116.00
2019-05-22T09:39:48.408Z,9536.00
2019-05-22T09:40:48.362Z,9776.00
2019-05-22T09:41:48.349Z,9920.00
2019-05-22T09:42:48.366Z,9712.00
2019-05-22T09:43:48.334Z,10628.00
2019-05-22T09:44:48.309Z,9864.00
2019-05-22T09:45:48.301Z,9852.00
2019-05-22T09:46:48.334Z,9956.00
2019-05-22T09:47:48.292Z,10492.00
2019-05-22T09:48:48.319Z,11108.00
2019-05-22T09:49:48.348Z,11760.00
2019-05-22T09:50:48.281Z,11584.00
2019-05-22T09:51:48.235Z,10592.00
2019-05-22T09:52:56.963Z,11116.00
2019-05-22T09:53:49.215Z,10880.00
2019-05-22T09:54:48.201Z,9352.00
2019-05-22T09:55:48.244Z,9924.00
2019-05-22T09:56:48.206Z,9164.00
2019-05-22T09:57:54.742Z,8364.00
2019-05-22T09:58:48.164Z,8044.00
2019-05-22T09:59:48.160Z,8060.00
2019-05-22T10:00:48.145Z,7968.00
2019-05-22T10:01:48.242Z,9036.00
2019-05-22T10:02:48.132Z,9080.00
2019-05-22T10:03:48.177Z,8284.00
2019-05-22T10:04:48.118Z,8556.00
2019-05-22T10:05:48.133Z,8692.00
2019-05-22T10:06:48.100Z,8236.00
2019-05-22T10:07:59.838Z,7980.00
2019-05-22T10:08:49.042Z,8252.00
2019-05-22T10:09:48.033Z,8148.00
2019-05-22T10:10:48.035Z,7992.00
2019-05-22T10:11:48.020Z,8320.00
2019-05-22T10:12:48.042Z,8304.00
2019-05-22T10:13:48.199Z,8680.00
2019-05-22T10:14:48.293Z,8764.00
2019-05-22T10:15:47.970Z,8660.00
2019-05-22T10:16:47.965Z,8764.00
2019-05-22T10:17:47.940Z,9112.00
2019-05-22T10:18:47.946Z,9512.00
2019-05-22T10:19:47.919Z,9260.00
2019-05-22T10:20:47.908Z,9628.00
2019-05-22T10:21:47.902Z,9976.00
2019-05-22T10:22:47.966Z,9996.00
2019-05-22T10:23:47.896Z,9600.00
2019-05-22T10:24:50.277Z,9536.00
2019-05-22T10:25:47.851Z,9192.00
2019-05-22T10:26:47.838Z,9860.00
2019-05-22T10:27:47.846Z,10004.00
2019-05-22T10:28:47.847Z,10608.00
2019-05-22T10:29:47.849Z,10140.00
2019-05-22T10:30:47.801Z,10340.00
2019-05-22T10:31:47.784Z,9900.00
2019-05-22T10:32:47.789Z,9408.00
2019-05-22T10:33:51.747Z,9144.00
2019-05-22T10:34:47.782Z,9544.00
2019-05-22T10:35:47.751Z,11148.00
2019-05-22T10:36:47.727Z,9236.00
2019-05-22T10:37:47.714Z,8360.00
2019-05-22T10:38:47.724Z,8028.00
2019-05-22T10:39:47.695Z,8108.00
2019-05-22T10:40:47.692Z,8256.00
2019-05-22T10:41:47.682Z,8052.00
2019-05-22T10:42:47.692Z,7828.00
2019-05-22T10:43:47.660Z,7604.00
2019-05-22T10:44:47.644Z,7924.00
2019-05-22T10:45:47.633Z,7540.00
2019-05-22T10:46:47.619Z,7064.00
2019-05-22T10:47:47.605Z,6884.00
2019-05-22T10:48:47.629Z,7088.00
2019-05-22T10:49:47.599Z,7196.00
2019-05-22T10:50:47.597Z,7564.00
2019-05-22T10:51:47.567Z,7124.00
2019-05-22T10:52:47.543Z,6888.00
2019-05-22T10:53:47.541Z,6796.00
2019-05-22T10:54:47.528Z,6868.00
2019-05-22T10:55:47.552Z,7056.00
2019-05-22T10:56:47.498Z,7096.00
2019-05-22T10:57:47.527Z,7436.00
2019-05-22T10:58:47.484Z,7284.00
2019-05-22T10:59:47.480Z,7720.00
2019-05-22T11:00:47.469Z,8308.00
2019-05-22T11:01:47.479Z,8688.00
2019-05-22T11:02:47.438Z,8652.00
2019-05-22T11:03:47.430Z,8960.00
2019-05-22T11:04:47.432Z,8620.00
2019-05-22T11:06:05.311Z,8720.00
2019-05-22T11:06:48.438Z,7160.00
2019-05-22T11:07:47.378Z,7316.00
2019-05-22T11:08:47.379Z,7516.00
2019-05-22T11:09:47.360Z,7776.00
2019-05-22T11:10:47.344Z,8008.00
2019-05-22T11:11:47.350Z,7608.00
2019-05-22T11:12:47.352Z,7512.00
2019-05-22T11:14:00.589Z,7332.00
2019-05-22T11:14:48.310Z,6472.00
2019-05-22T11:15:47.289Z,6248.00
2019-05-22T11:16:47.276Z,6536.00
2019-05-22T11:17:47.284Z,6344.00
2019-05-22T11:18:47.256Z,6336.00
2019-05-22T11:19:47.265Z,5880.00
2019-05-22T11:20:47.231Z,6012.00
2019-05-22T11:21:47.229Z,5996.00
2019-05-22T11:22:47.239Z,5892.00
2019-05-22T11:23:52.559Z,6484.00
2019-05-22T11:24:48.183Z,6412.00
2019-05-22T11:25:47.206Z,6596.00
2019-05-22T11:26:47.176Z,6808.00
2019-05-22T11:27:47.176Z,6612.00
2019-05-22T11:28:47.172Z,6880.00
2019-05-22T11:29:47.141Z,6444.00
2019-05-22T11:30:47.178Z,5828.00
2019-05-22T11:31:47.116Z,6252.00
2019-05-22T11:32:47.099Z,6532.00
2019-05-22T11:33:47.113Z,6060.00
2019-05-22T11:34:47.087Z,6236.00
2019-05-22T11:35:47.087Z,6612.00
2019-05-22T11:36:47.084Z,6376.00
2019-05-22T11:37:47.040Z,6704.00
2019-05-22T11:38:47.039Z,6768.00
2019-05-22T11:39:47.037Z,6612.00
2019-05-22T11:40:47.003Z,7452.00
2019-05-22T11:41:47.039Z,7296.00
2019-05-22T11:42:47.005Z,7436.00
2019-05-22T11:43:46.994Z,8388.00
2019-05-22T11:44:46.963Z,8980.00
2019-05-22T11:45:46.982Z,7280.00
2019-05-22T11:46:46.942Z,6436.00
2019-05-22T11:47:46.951Z,6256.00
2019-05-22T11:48:46.924Z,6252.00
2019-05-22T11:49:46.922Z,6236.00
2019-05-22T11:50:46.898Z,5868.00
2019-05-22T11:51:46.922Z,6972.00
2019-05-22T11:52:46.927Z,7944.00
2019-05-22T11:53:46.886Z,6572.00
2019-05-22T11:54:46.860Z,10096.00
2019-05-22T11:55:46.841Z,7392.00
2019-05-22T11:56:46.904Z,7576.00
2019-05-22T11:57:46.912Z,7160.00
2019-05-22T11:58:46.823Z,6148.00
2019-05-22T11:59:46.798Z,6068.00
2019-05-22T12:00:46.879Z,6012.00
2019-05-22T12:01:46.779Z,5652.00
2019-05-22T12:02:46.806Z,5552.00
2019-05-22T12:03:46.756Z,5308.00
2019-05-22T12:04:48.765Z,5192.00
2019-05-22T12:05:46.737Z,5052.00
2019-05-22T12:06:46.719Z,5160.00
2019-05-22T12:07:46.715Z,5516.00
2019-05-22T12:08:46.740Z,5536.00
2019-05-22T12:09:46.692Z,5712.00
2019-05-22T12:10:46.702Z,6276.00
2019-05-22T12:11:46.669Z,6448.00
2019-05-22T12:12:46.678Z,7000.00
2019-05-22T12:13:46.675Z,6792.00
2019-05-22T12:14:46.677Z,6692.00
2019-05-22T12:15:46.625Z,6444.00
2019-05-22T12:16:46.622Z,6204.00
2019-05-22T12:17:46.621Z,6984.00
2019-05-22T12:18:46.680Z,7760.00
2019-05-22T12:19:46.617Z,6928.00
2019-05-22T12:20:46.565Z,6564.00
2019-05-22T12:21:46.559Z,5948.00
2019-05-22T12:22:46.550Z,6416.00
2019-05-22T12:23:46.539Z,6436.00
2019-05-22T12:24:46.528Z,6356.00
2019-05-22T12:25:46.562Z,6320.00